createdAt,value
2023-05-05T00:01:34.856Z,99953.81
2023-05-05T00:04:36.673Z,99951.41
2023-05-05T00:07:38.673Z,99951.80
2023-05-05T00:10:40.856Z,99947.15
2023-05-05T00:13:42.771Z,99952.92
2023-05-05T00:16:44.866Z,99952.65
2023-05-05T00:19:46.928Z,99949.62
2023-05-05T00:22:48.994Z,99949.88
2023-05-05T00:25:50.920Z,99948.27
2023-05-05T00:28:52.657Z,99944.96
2023-05-05T00:31:54.601Z,99942.48
2023-05-05T00:34:56.742Z,99944.08
2023-05-05T00:37:58.875Z,99940.48
2023-05-05T00:41:01.003Z,99930.86
2023-05-05T00:44:02.978Z,99934.98
2023-05-05T00:47:05.441Z,99934.19
2023-05-05T00:50:08.719Z,99933.70
2023-05-05T00:53:12.076Z,99931.64
2023-05-05T00:56:15.640Z,99932.29
2023-05-05T00:59:17.775Z,99932.46
2023-05-05T01:02:19.491Z,99930.63
2023-05-05T01:05:22.904Z,99924.94
2023-05-05T01:08:27.539Z,99927.20
2023-05-05T01:12:19.612Z,99929.56
2023-05-05T01:15:34.237Z,99930.77
2023-05-05T01:18:46.383Z,99931.33
2023-05-05T01:21:52.168Z,99933.75
2023-05-05T01:25:25.781Z,99935.19
2023-05-05T01:28:33.825Z,99929.16
2023-05-05T01:32:11.338Z,99927.05
2023-05-05T01:35:21.073Z,99927.29
2023-05-05T01:38:26.647Z,99919.30
2023-05-05T01:41:49.155Z,99914.22
2023-05-05T01:44:52.463Z,99912.33
2023-05-05T01:47:55.861Z,99918.38
2023-05-05T01:50:57.861Z,99915.21
2023-05-05T01:54:01.893Z,99912.55
2023-05-05T01:57:05.955Z,99911.21
2023-05-05T02:00:08.828Z,99908.67
2023-05-05T02:03:12.401Z,99910.23
2023-05-05T02:06:14.933Z,99906.85
2023-05-05T02:09:17.118Z,99902.96
2023-05-05T02:12:24.825Z,99904.56
2023-05-05T02:15:28.021Z,99902.31
2023-05-05T02:18:31.209Z,99898.13
2023-05-05T02:21:34.170Z,99903.80
2023-05-05T02:24:36.389Z,99903.96
2023-05-05T02:27:41.805Z,99907.97
2023-05-05T02:30:55.992Z,99914.20
2023-05-05T02:34:00.579Z,99912.52
2023-05-05T02:37:07.088Z,99911.93
2023-05-05T02:40:10.199Z,99910.95
2023-05-05T02:43:17.081Z,99912.66
2023-05-05T02:46:19.413Z,99913.49
2023-05-05T02:49:21.282Z,99917.77
2023-05-05T02:52:24.031Z,99917.09
2023-05-05T02:55:39.896Z,99918.84
2023-05-05T02:58:53.104Z,99916.49
2023-05-05T03:02:08.464Z,99916.17
2023-05-05T03:05:13.010Z,99918.33
2023-05-05T03:08:24.645Z,99918.19
2023-05-05T03:11:30.812Z,99916.23
2023-05-05T03:14:37.536Z,99919.70
2023-05-05T03:17:44.632Z,99918.51
2023-05-05T03:20:47.339Z,99914.42
2023-05-05T03:23:58.486Z,99907.16
2023-05-05T03:27:00.802Z,99914.77
2023-05-05T03:30:02.761Z,99921.79
2023-05-05T03:33:04.727Z,99928.94
2023-05-05T03:36:06.743Z,99928.36
2023-05-05T03:39:09.019Z,99929.45
2023-05-05T03:42:10.921Z,99932.58
2023-05-05T03:45:13.200Z,99932.98
2023-05-05T03:48:15.230Z,99933.75
2023-05-05T03:51:17.384Z,99932.79
2023-05-05T03:54:19.153Z,99933.98
2023-05-05T03:57:21.103Z,99934.04
2023-05-05T04:00:23.608Z,99932.02
2023-05-05T04:03:26.090Z,99931.88
2023-05-05T04:06:28.551Z,99936.39
2023-05-05T04:09:30.774Z,99939.13
2023-05-05T04:12:32.663Z,99939.50
2023-05-05T04:15:35.010Z,99939.04
2023-05-05T04:18:37.312Z,99939.38
2023-05-05T04:21:39.260Z,99935.29
2023-05-05T04:24:41.438Z,99935.27
2023-05-05T04:27:43.752Z,99931.27
2023-05-05T04:30:45.768Z,99932.42
2023-05-05T04:33:47.444Z,99929.73
2023-05-05T04:36:49.238Z,99932.20
2023-05-05T04:39:51.886Z,99939.48
2023-05-05T04:42:53.815Z,99937.08
2023-05-05T04:45:56.043Z,99939.54
2023-05-05T04:48:58.908Z,99941.32
2023-05-05T04:52:00.667Z,99942.08
2023-05-05T04:55:03.300Z,99944.73
2023-05-05T04:58:05.622Z,99946.84
2023-05-05T05:01:07.497Z,99948.93
2023-05-05T05:04:09.604Z,99950.60
2023-05-05T05:07:11.408Z,99944.90
2023-05-05T05:10:13.384Z,99946.62
2023-05-05T05:13:15.134Z,99949.70
2023-05-05T05:16:17.356Z,99957.69
2023-05-05T05:19:19.341Z,99949.65
2023-05-05T05:22:21.103Z,99946.27
2023-05-05T05:25:23.650Z,99941.59
2023-05-05T05:28:25.539Z,99943.91
2023-05-05T05:34:10.721Z,99952.11
2023-05-05T05:37:14.332Z,99955.11
2023-05-05T05:40:16.684Z,99961.52
2023-05-05T05:43:18.464Z,99959.18
2023-05-05T05:46:20.323Z,99961.16
2023-05-05T05:49:22.263Z,99963.05
2023-05-05T05:52:24.021Z,99969.34
2023-05-05T05:55:26.472Z,99975.27
2023-05-05T05:58:28.261Z,99978.14
2023-05-05T06:01:30.111Z,99981.16
2023-05-05T06:04:32.248Z,99980.67
2023-05-05T06:07:34.242Z,99979.03
2023-05-05T06:10:36.422Z,99985.31
2023-05-05T06:13:38.649Z,99979.53
2023-05-05T06:16:40.711Z,99976.60
2023-05-05T06:19:42.468Z,99976.02
2023-05-05T06:22:44.209Z,99974.20
2023-05-05T06:25:46.236Z,99971.20
2023-05-05T06:28:48.295Z,99972.16
2023-05-05T06:31:50.087Z,99971.34
2023-05-05T06:34:52.242Z,99974.52
2023-05-05T06:37:54.036Z,99981.61
2023-05-05T06:40:55.950Z,99984.14
2023-05-05T06:43:57.626Z,99983.33
2023-05-05T06:46:59.720Z,99985.02
2023-05-05T06:50:01.877Z,99987.25
2023-05-05T06:53:03.623Z,99985.85
2023-05-05T06:56:05.580Z,99982.05
2023-05-05T06:59:07.750Z,99976.60
2023-05-05T07:02:09.592Z,99978.08
2023-05-05T07:05:11.699Z,99975.25
2023-05-05T07:08:13.415Z,99973.80
2023-05-05T07:11:15.858Z,99970.13
2023-05-05T07:14:18.657Z,99970.89
2023-05-05T07:17:20.455Z,99968.79
2023-05-05T07:20:22.671Z,99961.92
2023-05-05T07:23:24.404Z,99964.23
2023-05-05T07:26:26.347Z,99967.73
2023-05-05T07:29:28.244Z,99964.23
2023-05-05T07:32:30.087Z,99970.10
2023-05-05T07:35:31.888Z,99965.48
2023-05-05T07:38:33.591Z,99967.83
2023-05-05T07:41:35.410Z,99963.84
2023-05-05T07:44:37.213Z,99959.51
2023-05-05T07:47:39.201Z,99956.01
2023-05-05T07:50:41.222Z,99953.75
2023-05-05T07:53:43.080Z,99952.85
2023-05-05T07:56:45.244Z,99951.86
2023-05-05T07:59:46.951Z,99950.59
2023-05-05T08:02:48.898Z,99953.48
2023-05-05T08:05:51.786Z,99950.96
2023-05-05T08:08:54.821Z,99950.70
2023-05-05T08:11:56.858Z,99948.70
2023-05-05T08:14:59.055Z,99948.80
2023-05-05T08:18:14.784Z,99949.59
2023-05-05T08:21:17.350Z,99946.52
2023-05-05T08:24:19.194Z,99946.73
2023-05-05T08:27:24.900Z,99942.05
2023-05-05T08:30:26.808Z,99942.15
2023-05-05T08:33:28.966Z,99948.30
2023-05-05T08:36:30.776Z,99947.36
2023-05-05T08:39:32.771Z,99951.13
2023-05-05T08:42:38.409Z,99945.89
2023-05-05T08:45:44.772Z,99944.92
2023-05-05T08:48:48.701Z,99947.11
2023-05-05T08:51:51.030Z,99950.83
2023-05-05T08:54:58.030Z,99945.16
2023-05-05T08:58:00.575Z,99943.16
2023-05-05T09:01:03.035Z,99936.38
2023-05-05T09:04:04.995Z,99933.43
2023-05-05T09:07:07.453Z,99934.86
2023-05-05T09:10:10.526Z,99932.04
2023-05-05T09:13:30.419Z,99930.29
2023-05-05T09:16:32.251Z,99937.42
2023-05-05T09:19:33.877Z,99936.48
2023-05-05T09:22:45.267Z,99934.26
2023-05-05T09:26:02.661Z,99933.95
2023-05-05T09:29:04.883Z,99932.48
2023-05-05T09:32:06.816Z,99935.63
2023-05-05T09:35:08.901Z,99936.77
2023-05-05T09:38:11.792Z,99936.95
2023-05-05T09:41:13.848Z,99939.16
2023-05-05T09:44:15.488Z,99930.69
2023-05-05T09:47:26.341Z,99932.62
2023-05-05T09:50:42.905Z,99933.80
2023-05-05T09:53:44.615Z,99933.50
2023-05-05T09:56:46.620Z,99931.90
2023-05-05T09:59:58.690Z,99934.73
2023-05-05T10:06:04.553Z,99923.98
2023-05-05T10:09:06.179Z,99927.73
2023-05-05T10:12:08.259Z,99931.15
2023-05-05T10:15:11.892Z,99925.83
2023-05-05T10:18:15.192Z,99923.14
2023-05-05T10:21:20.420Z,99921.16
2023-05-05T10:24:35.333Z,99925.77
2023-05-05T10:27:43.309Z,99918.80
2023-05-05T10:30:46.209Z,99915.05
2023-05-05T10:33:53.323Z,99909.59
2023-05-05T10:36:57.419Z,99906.95
2023-05-05T10:39:59.310Z,99912.20
2023-05-05T10:43:01.137Z,99902.29
2023-05-05T10:46:03.345Z,99900.70
2023-05-05T10:49:13.976Z,99901.52
2023-05-05T10:52:26.161Z,99896.95
2023-05-05T10:55:51.071Z,99893.23
2023-05-05T10:58:59.797Z,99894.73
2023-05-05T11:02:27.524Z,99887.77
2023-05-05T11:05:30.186Z,99887.84
2023-05-05T11:08:36.640Z,99882.33
2023-05-05T11:12:04.589Z,99880.59
2023-05-05T11:15:28.491Z,99881.20
2023-05-05T11:18:31.292Z,99884.60
2023-05-05T11:22:02.077Z,99881.36
2023-05-05T11:25:36.741Z,99882.71
2023-05-05T11:29:03.015Z,99880.67
2023-05-05T11:32:14.155Z,99870.36
2023-05-05T11:35:16.019Z,99873.45
2023-05-05T11:38:18.446Z,99869.06
2023-05-05T11:41:32.453Z,99862.38
2023-05-05T11:44:34.965Z,99864.56
2023-05-05T11:47:36.837Z,99867.10
2023-05-05T11:50:38.732Z,99865.77
2023-05-05T11:53:44.951Z,99869.90
2023-05-05T11:56:54.341Z,99867.91
2023-05-05T12:00:05.538Z,99863.51
2023-05-05T12:03:07.643Z,99861.27
2023-05-05T12:06:10.071Z,99858.80
2023-05-05T12:09:19.521Z,99855.38
2023-05-05T12:12:21.891Z,99850.23
2023-05-05T12:15:32.916Z,99851.91
2023-05-05T12:18:35.087Z,99854.61
2023-05-05T12:21:36.974Z,99855.23
2023-05-05T12:24:38.668Z,99850.13
2023-05-05T12:27:40.352Z,99848.16
2023-05-05T12:30:42.038Z,99847.70
2023-05-05T12:33:44.121Z,99848.54
2023-05-05T12:36:45.886Z,99848.30
2023-05-05T12:39:48.747Z,99843.18
2023-05-05T12:42:50.453Z,99838.39
2023-05-05T12:46:12.387Z,99833.46
2023-05-05T12:49:14.763Z,99831.33
2023-05-05T12:52:16.591Z,99832.66
2023-05-05T12:55:18.572Z,99832.96
2023-05-05T12:58:20.199Z,99825.88
2023-05-05T13:01:21.986Z,99828.20
2023-05-05T13:04:25.324Z,99826.83
2023-05-05T13:07:26.907Z,99820.91
2023-05-05T13:10:28.500Z,99816.85
2023-05-05T13:13:32.137Z,99814.48
2023-05-05T13:16:34.204Z,99805.71
2023-05-05T13:19:36.006Z,99806.02
2023-05-05T13:22:38.671Z,99801.59
2023-05-05T13:25:40.746Z,99798.46
2023-05-05T13:28:42.436Z,99799.67
2023-05-05T13:31:44.948Z,99795.77
2023-05-05T13:34:47.428Z,99791.11
2023-05-05T13:37:49.257Z,99788.84
2023-05-05T13:40:51.136Z,99786.09
2023-05-05T13:43:53.108Z,99787.41
2023-05-05T13:46:55.023Z,99783.55
2023-05-05T13:49:56.856Z,99780.73
2023-05-05T13:52:58.804Z,99774.63
2023-05-05T13:56:01.041Z,99774.39
2023-05-05T13:59:02.778Z,99773.70
2023-05-05T14:02:04.419Z,99768.59
2023-05-05T14:05:06.938Z,99769.21
2023-05-05T14:08:09.799Z,99767.71
2023-05-05T14:11:11.534Z,99772.73
2023-05-05T14:14:13.495Z,99767.42
2023-05-05T14:17:15.128Z,99768.92
2023-05-05T14:20:16.822Z,99768.69
2023-05-05T14:23:18.605Z,99761.64
2023-05-05T14:26:20.544Z,99764.52
2023-05-05T14:29:22.234Z,99764.66
2023-05-05T14:32:24.714Z,99759.73
2023-05-05T14:35:26.815Z,99753.31
2023-05-05T14:38:28.888Z,99756.38
2023-05-05T14:41:30.648Z,99755.12
2023-05-05T14:44:32.365Z,99757.08
2023-05-05T14:47:34.538Z,99750.55
2023-05-05T14:50:36.505Z,99753.90
2023-05-05T14:53:38.863Z,99753.30
2023-05-05T14:56:40.938Z,99751.35
2023-05-05T14:59:42.528Z,99744.67
2023-05-05T15:02:44.422Z,99743.94
2023-05-05T15:05:46.355Z,99740.25
2023-05-05T15:08:48.219Z,99739.98
2023-05-05T15:11:50.088Z,99738.85
2023-05-05T15:14:51.909Z,99736.52
2023-05-05T15:17:53.582Z,99740.08
2023-05-05T15:20:55.251Z,99738.98
2023-05-05T15:23:56.916Z,99739.80
2023-05-05T15:26:58.882Z,99742.05
2023-05-05T15:30:00.583Z,99744.42
2023-05-05T15:33:02.693Z,99740.73
2023-05-05T15:36:04.964Z,99739.98
2023-05-05T15:39:06.693Z,99738.05
2023-05-05T15:42:08.331Z,99739.88
2023-05-05T15:45:10.811Z,99738.55
2023-05-05T15:48:12.873Z,99734.34
2023-05-05T15:51:14.594Z,99732.98
2023-05-05T15:54:16.262Z,99737.25
2023-05-05T15:57:18.238Z,99737.40
2023-05-05T16:00:20.325Z,99737.61
2023-05-05T16:03:22.130Z,99738.66
2023-05-05T16:06:24.229Z,99734.07
2023-05-05T16:09:26.201Z,99733.73
2023-05-05T16:12:28.118Z,99731.05
2023-05-05T16:15:29.821Z,99728.75
2023-05-05T16:18:31.687Z,99727.73
2023-05-05T16:21:33.315Z,99725.72
2023-05-05T16:24:35.054Z,99725.80
2023-05-05T16:27:36.785Z,99727.48
2023-05-05T16:30:38.462Z,99728.16
2023-05-05T16:33:40.390Z,99726.07
2023-05-05T16:36:44.156Z,99728.34
2023-05-05T16:39:46.273Z,99724.27
2023-05-05T16:42:48.236Z,99722.64
2023-05-05T16:45:50.054Z,99717.80
2023-05-05T16:48:51.789Z,99715.92
2023-05-05T16:51:53.567Z,99722.57
2023-05-05T16:54:55.234Z,99721.06
2023-05-05T16:57:56.961Z,99723.58
2023-05-05T17:00:58.727Z,99724.61
2023-05-05T17:04:00.884Z,99723.19
2023-05-05T17:07:02.508Z,99721.35
2023-05-05T17:10:04.563Z,99726.75
2023-05-05T17:13:08.504Z,99729.58
2023-05-05T17:16:10.315Z,99725.23
2023-05-05T17:19:12.004Z,99727.78
2023-05-05T17:22:13.699Z,99726.92
2023-05-05T17:25:15.737Z,99732.68
2023-05-05T17:28:17.342Z,99734.59
2023-05-05T17:31:19.094Z,99731.62
2023-05-05T17:34:21.133Z,99730.18
2023-05-05T17:37:23.248Z,99735.23
2023-05-05T17:40:25.164Z,99736.30
2023-05-05T17:43:27.239Z,99736.38
2023-05-05T17:46:29.016Z,99738.27
2023-05-05T17:49:30.993Z,99734.23
2023-05-05T17:52:33.087Z,99731.20
2023-05-05T17:55:35.324Z,99738.16
2023-05-05T17:58:37.417Z,99739.16
2023-05-05T18:01:39.324Z,99743.73
2023-05-05T18:04:41.442Z,99742.77
2023-05-05T18:07:47.386Z,99744.73
2023-05-05T18:10:49.349Z,99742.50
2023-05-05T18:13:51.285Z,99745.30
2023-05-05T18:16:53.274Z,99745.48
2023-05-05T18:19:58.449Z,99751.48
2023-05-05T18:23:00.740Z,99758.02
2023-05-05T18:26:02.912Z,99757.06
2023-05-05T18:29:08.077Z,99762.73
2023-05-05T18:32:10.439Z,99762.98
2023-05-05T18:35:12.473Z,99767.30
2023-05-05T18:38:14.999Z,99772.27
2023-05-05T18:41:17.028Z,99774.00
2023-05-05T18:44:19.216Z,99771.40
2023-05-05T18:47:23.399Z,99774.51
2023-05-05T18:50:25.232Z,99774.81
2023-05-05T18:53:27.530Z,99779.52
2023-05-05T18:56:29.544Z,99777.98
2023-05-05T18:59:31.529Z,99779.36
2023-05-05T19:02:33.700Z,99780.52
2023-05-05T19:05:35.917Z,99781.89
2023-05-05T19:08:38.495Z,99781.55
2023-05-05T19:11:40.875Z,99787.41
2023-05-05T19:14:42.701Z,99782.15
2023-05-05T19:17:44.627Z,99781.08
2023-05-05T19:20:46.676Z,99783.56
2023-05-05T19:23:58.334Z,99784.23
2023-05-05T19:27:03.192Z,99778.39
2023-05-05T19:30:09.204Z,99778.33
2023-05-05T19:33:14.934Z,99771.98
2023-05-05T19:36:16.699Z,99772.35
2023-05-05T19:39:18.749Z,99771.41
2023-05-05T19:42:23.081Z,99768.63
2023-05-05T19:45:36.466Z,99772.27
2023-05-05T19:48:38.663Z,99769.27
2023-05-05T19:51:41.682Z,99767.95
2023-05-05T19:54:43.603Z,99768.64
2023-05-05T19:57:46.272Z,99769.53
2023-05-05T20:00:55.655Z,99772.16
2023-05-05T20:03:57.605Z,99773.09
2023-05-05T20:07:12.361Z,99772.33
2023-05-05T20:10:14.401Z,99771.36
2023-05-05T20:13:16.571Z,99773.66
2023-05-05T20:16:26.391Z,99773.80
2023-05-05T20:19:50.541Z,99771.21
2023-05-05T20:22:52.787Z,99771.27
2023-05-05T20:25:57.253Z,99773.55
2023-05-05T20:28:59.826Z,99772.46
2023-05-05T20:32:05.473Z,99772.23
2023-05-05T20:35:09.947Z,99771.98
2023-05-05T20:38:21.093Z,99768.64
2023-05-05T20:41:25.534Z,99765.80
2023-05-05T20:44:38.685Z,99766.10
2023-05-05T20:47:46.266Z,99763.75
2023-05-05T20:50:58.863Z,99764.48
2023-05-05T20:54:04.147Z,99759.34
2023-05-05T20:57:08.938Z,99754.58
2023-05-05T21:00:20.047Z,99755.15
2023-05-05T21:03:27.995Z,99755.58
2023-05-05T21:07:10.364Z,99749.84
2023-05-05T21:10:15.771Z,99749.80
2023-05-05T21:13:24.112Z,99747.11
2023-05-05T21:16:31.203Z,99744.90
2023-05-05T21:19:46.926Z,99746.92
2023-05-05T21:22:51.286Z,99748.63
2023-05-05T21:25:55.967Z,99750.23
2023-05-05T21:28:57.980Z,99753.27
2023-05-05T21:32:00.278Z,99760.16
2023-05-05T21:35:22.563Z,99759.52
2023-05-05T21:38:24.422Z,99758.28
2023-05-05T21:41:33.871Z,99755.44
2023-05-05T21:44:56.813Z,99755.84
2023-05-05T21:48:12.523Z,99754.45
2023-05-05T21:51:22.020Z,99750.55
2023-05-05T21:54:24.444Z,99746.98
2023-05-05T21:57:29.511Z,99751.85
2023-05-05T22:00:31.383Z,99749.86
2023-05-05T22:03:36.375Z,99747.19
2023-05-05T22:06:41.074Z,99747.05
2023-05-05T22:09:43.676Z,99748.27
2023-05-05T22:12:45.999Z,99746.52
2023-05-05T22:15:48.047Z,99741.77
2023-05-05T22:18:57.564Z,99742.20
2023-05-05T22:21:59.646Z,99742.05
2023-05-05T22:25:01.492Z,99735.64
2023-05-05T22:28:03.911Z,99738.48
2023-05-05T22:31:06.320Z,99735.02
2023-05-05T22:34:11.441Z,99736.20
2023-05-05T22:37:14.209Z,99737.08
2023-05-05T22:40:16.643Z,99736.48
2023-05-05T22:43:18.821Z,99735.41
2023-05-05T22:46:21.072Z,99733.91
2023-05-05T22:49:25.897Z,99737.91
2023-05-05T22:54:26.326Z,99739.67
2023-05-05T22:57:28.352Z,99736.02
2023-05-05T23:00:30.540Z,99732.48
2023-05-05T23:03:32.859Z,99731.95
2023-05-05T23:06:48.153Z,99730.88
2023-05-05T23:09:50.482Z,99732.00
2023-05-05T23:12:56.075Z,99735.81
2023-05-05T23:15:58.358Z,99736.30
2023-05-05T23:19:00.442Z,99734.48
2023-05-05T23:22:02.714Z,99734.73
2023-05-05T23:25:05.146Z,99732.34
2023-05-05T23:28:17.002Z,99732.52
2023-05-05T23:31:19.168Z,99730.89
2023-05-05T23:34:23.783Z,99729.20
2023-05-05T23:37:29.683Z,99728.20
2023-05-05T23:41:24.563Z,99721.20
2023-05-05T23:44:30.038Z,99713.95
2023-05-05T23:47:41.381Z,99708.61
2023-05-05T23:50:46.422Z,99704.50
2023-05-05T23:53:52.166Z,99707.08
2023-05-05T23:56:54.771Z,99701.27
2023-05-05T23:59:56.803Z,99703.39
